Monday, October 16, 2017, 7:21 PM CDT
Back to Local

KCNK, Concordia, Blosser Municipal Airport

Location: Concordia, KS, United States Lat: 39.551
Local Time: 7:21 PM CDT ( 0:21 GMT) Lon: -97.651
Time Zone: US/Central Elev: 1486 ft

Show me the last for .
Show Decoded

2017-10-16 18:55 METAR KCNK 162355Z AUTO 18009KT 10SM CLR 17/04 A3016 RMK AO2 SLP214 T01670044
                 10233 20167 55011 =
2017-10-16 17:55 METAR KCNK 162255Z AUTO 19012KT 10SM CLR 21/03 A3016 RMK AO2 SLP211 T02060033 =
2017-10-16 16:55 METAR KCNK 162155Z AUTO 19016KT 10SM CLR 22/03 A3018 RMK AO2 SLP214 T02220028 =
2017-10-16 15:55 METAR KCNK 162055Z AUTO 22013G22KT 10SM CLR 23/02 A3020 RMK AO2 SLP221 T02280022
                 56034 =
2017-10-16 14:55 METAR KCNK 161955Z AUTO 20016G22KT 10SM CLR 23/02 A3022 RMK AO2 SLP229 T02280022
                 =
2017-10-16 13:55 METAR KCNK 161855Z AUTO 19017KT 10SM CLR 22/03 A3025 RMK AO2 SLP241 T02220033 =
2017-10-16 12:55 METAR KCNK 161755Z AUTO 21014KT 10SM CLR 21/06 A3030 RMK AO2 SLP256 T02060056
                 10206 20044 58019 =
2017-10-16 11:55 METAR KCNK 161655Z AUTO 22015G19KT 10SM CLR 19/04 A3032 RMK AO2 SLP266 T01890039
                 =
2017-10-16 10:55 METAR KCNK 161555Z AUTO 22009KT 10SM CLR 16/04 A3035 RMK AO2 SLP275 T01610039 $
                 =
2017-10-16 09:55 METAR KCNK 161455Z AUTO 24010KT 10SM CLR 13/04 A3036 RMK AO2 SLP280 T01280039
                 53001 $ =
2017-10-16 08:55 METAR KCNK 161355Z AUTO 23006KT 10SM CLR 10/03 A3036 RMK AO2 SLP281 T01000033 $
                 =
2017-10-16 07:55 METAR KCNK 161255Z AUTO 21004KT 10SM CLR 05/02 A3035 RMK AO2 SLP281 T00500017 $
                 =
2017-10-16 06:55 METAR KCNK 161155Z AUTO 19003KT 10SM CLR 04/02 A3036 RMK AO2 SLP283 T00440017
                 10094 20044 55001 $ =
2017-10-16 05:55 METAR KCNK 161055Z AUTO 21005KT 10SM CLR 06/02 A3035 RMK AO2 SLP277 T00560022 $
                 =
2017-10-16 04:55 METAR KCNK 160955Z AUTO 23004KT 10SM CLR 07/02 A3035 RMK AO2 SLP278 T00670022 =
2017-10-16 03:55 METAR KCNK 160855Z AUTO 23005KT 10SM CLR 07/02 A3036 RMK AO2 SLP280 T00670017
                 58002 =
2017-10-16 02:55 METAR KCNK 160755Z AUTO 00000KT 10SM CLR 06/02 A3037 RMK AO2 SLP284 T00610022 =
2017-10-16 01:55 METAR KCNK 160655Z AUTO 00000KT 10SM CLR 07/02 A3037 RMK AO2 SLP285 T00720022 =
2017-10-16 00:55 METAR KCNK 160555Z AUTO 24003KT 10SM CLR 09/02 A3036 RMK AO2 SLP282 T00890017
                 10117 20083 401720033 51003 =
2017-10-15 23:55 METAR KCNK 160455Z AUTO 22006KT 10SM CLR 09/02 A3036 RMK AO2 SLP283 T00890017 =
2017-10-15 22:55 METAR KCNK 160355Z AUTO 22008KT 10SM CLR 09/02 A3037 RMK AO2 SLP286 T00940017 =
2017-10-15 21:55 METAR KCNK 160255Z AUTO 21008KT 10SM CLR 09/02 A3036 RMK AO2 SLP283 T00940017
                 51002 =
2017-10-15 20:55 METAR KCNK 160155Z AUTO 22007KT 10SM CLR 10/02 A3035 RMK AO2 SLP283 T01000017 =
2017-10-15 19:55 METAR KCNK 160055Z AUTO 22007KT 10SM CLR 10/02 A3035 RMK AO2 SLP284 T01000022 =

Support USWX by starting your Amazon purchase here.